sensor_id;sensor_type;location;lat;lon;timestamp;P1;durP1;ratioP1;P2;durP2;ratioP2
18612;SDS011;9436;52.152;21.032;2023-01-04T00:00:19;8.83;;;6.00;;
18612;SDS011;9436;52.152;21.032;2023-01-04T00:02:45;7.47;;;5.57;;
18612;SDS011;9436;52.152;21.032;2023-01-04T00:05:14;9.97;;;6.13;;
18612;SDS011;9436;52.152;21.032;2023-01-04T00:07:41;9.27;;;6.03;;
18612;SDS011;9436;52.152;21.032;2023-01-04T00:10:08;9.53;;;5.83;;
18612;SDS011;9436;52.152;21.032;2023-01-04T00:12:35;10.97;;;5.97;;
18612;SDS011;9436;52.152;21.032;2023-01-04T00:15:02;9.03;;;6.50;;
18612;SDS011;9436;52.152;21.032;2023-01-04T00:17:29;12.43;;;6.40;;
18612;SDS011;9436;52.152;21.032;2023-01-04T00:19:56;8.10;;;5.77;;
18612;SDS011;9436;52.152;21.032;2023-01-04T00:22:24;11.07;;;5.93;;
18612;SDS011;9436;52.152;21.032;2023-01-04T00:24:51;7.50;;;6.13;;
18612;SDS011;9436;52.152;21.032;2023-01-04T00:27:17;9.53;;;5.90;;
18612;SDS011;9436;52.152;21.032;2023-01-04T00:29:45;9.70;;;6.40;;
18612;SDS011;9436;52.152;21.032;2023-01-04T00:32:13;8.27;;;6.50;;
18612;SDS011;9436;52.152;21.032;2023-01-04T00:34:40;10.73;;;7.00;;
18612;SDS011;9436;52.152;21.032;2023-01-04T00:37:06;11.93;;;6.77;;
18612;SDS011;9436;52.152;21.032;2023-01-04T00:39:34;10.23;;;6.40;;
18612;SDS011;9436;52.152;21.032;2023-01-04T00:42:01;10.77;;;6.20;;
18612;SDS011;9436;52.152;21.032;2023-01-04T00:44:30;12.50;;;7.20;;
18612;SDS011;9436;52.152;21.032;2023-01-04T00:46:58;10.23;;;6.50;;
18612;SDS011;9436;52.152;21.032;2023-01-04T00:49:26;9.63;;;6.50;;
18612;SDS011;9436;52.152;21.032;2023-01-04T00:51:53;10.20;;;6.33;;
18612;SDS011;9436;52.152;21.032;2023-01-04T00:54:20;11.00;;;6.93;;
18612;SDS011;9436;52.152;21.032;2023-01-04T00:56:48;9.20;;;6.70;;
18612;SDS011;9436;52.152;21.032;2023-01-04T00:59:17;8.77;;;6.20;;
18612;SDS011;9436;52.152;21.032;2023-01-04T01:01:45;8.57;;;6.53;;
18612;SDS011;9436;52.152;21.032;2023-01-04T01:04:14;10.27;;;6.90;;
18612;SDS011;9436;52.152;21.032;2023-01-04T01:06:42;10.87;;;6.90;;
18612;SDS011;9436;52.152;21.032;2023-01-04T01:09:09;9.80;;;6.70;;
18612;SDS011;9436;52.152;21.032;2023-01-04T01:11:37;9.13;;;6.60;;
18612;SDS011;9436;52.152;21.032;2023-01-04T01:14:06;10.60;;;7.10;;
18612;SDS011;9436;52.152;21.032;2023-01-04T01:16:33;13.10;;;7.30;;
18612;SDS011;9436;52.152;21.032;2023-01-04T01:19:00;10.13;;;7.10;;
18612;SDS011;9436;52.152;21.032;2023-01-04T01:21:27;9.97;;;6.87;;
18612;SDS011;9436;52.152;21.032;2023-01-04T01:23:56;10.33;;;7.23;;
18612;SDS011;9436;52.152;21.032;2023-01-04T01:26:24;10.27;;;6.97;;
18612;SDS011;9436;52.152;21.032;2023-01-04T01:28:52;9.93;;;7.30;;
18612;SDS011;9436;52.152;21.032;2023-01-04T01:31:21;10.50;;;7.23;;
18612;SDS011;9436;52.152;21.032;2023-01-04T01:33:50;13.10;;;7.37;;
18612;SDS011;9436;52.152;21.032;2023-01-04T01:36:18;12.33;;;7.53;;
18612;SDS011;9436;52.152;21.032;2023-01-04T01:38:46;12.27;;;7.67;;
18612;SDS011;9436;52.152;21.032;2023-01-04T01:41:15;12.00;;;7.60;;
18612;SDS011;9436;52.152;21.032;2023-01-04T01:43:45;11.77;;;7.43;;
18612;SDS011;9436;52.152;21.032;2023-01-04T01:46:14;10.97;;;7.30;;
18612;SDS011;9436;52.152;21.032;2023-01-04T01:48:44;10.50;;;7.90;;
18612;SDS011;9436;52.152;21.032;2023-01-04T01:51:11;11.20;;;7.70;;
18612;SDS011;9436;52.152;21.032;2023-01-04T01:53:42;11.07;;;7.33;;
18612;SDS011;9436;52.152;21.032;2023-01-04T01:56:11;11.47;;;7.47;;
18612;SDS011;9436;52.152;21.032;2023-01-04T01:58:44;11.53;;;7.60;;
18612;SDS011;9436;52.152;21.032;2023-01-04T02:01:17;9.27;;;7.27;;
18612;SDS011;9436;52.152;21.032;2023-01-04T02:03:47;13.37;;;7.60;;
18612;SDS011;9436;52.152;21.032;2023-01-04T02:06:16;10.90;;;7.57;;
18612;SDS011;9436;52.152;21.032;2023-01-04T02:08:48;11.83;;;7.70;;
18612;SDS011;9436;52.152;21.032;2023-01-04T02:11:15;11.73;;;7.83;;
18612;SDS011;9436;52.152;21.032;2023-01-04T02:13:42;13.17;;;8.40;;
18612;SDS011;9436;52.152;21.032;2023-01-04T02:16:14;10.80;;;7.73;;
18612;SDS011;9436;52.152;21.032;2023-01-04T02:18:51;13.20;;;8.30;;
18612;SDS011;9436;52.152;21.032;2023-01-04T02:21:28;12.17;;;7.80;;
18612;SDS011;9436;52.152;21.032;2023-01-04T02:24:11;13.50;;;9.10;;
18612;SDS011;9436;52.152;21.032;2023-01-04T02:32:39;12.70;;;9.17;;
18612;SDS011;9436;52.152;21.032;2023-01-04T02:35:16;15.90;;;9.57;;
18612;SDS011;9436;52.152;21.032;2023-01-04T02:37:50;13.13;;;9.47;;
18612;SDS011;9436;52.152;21.032;2023-01-04T02:40:25;14.50;;;9.37;;
18612;SDS011;9436;52.152;21.032;2023-01-04T02:42:57;11.93;;;9.03;;
18612;SDS011;9436;52.152;21.032;2023-01-04T02:45:33;13.83;;;9.67;;
18612;SDS011;9436;52.152;21.032;2023-01-04T02:48:06;14.17;;;9.37;;
18612;SDS011;9436;52.152;21.032;2023-01-04T02:50:38;13.50;;;8.97;;
18612;SDS011;9436;52.152;21.032;2023-01-04T02:53:16;12.57;;;8.80;;
18612;SDS011;9436;52.152;21.032;2023-01-04T02:55:46;10.47;;;8.90;;
18612;SDS011;9436;52.152;21.032;2023-01-04T02:58:23;12.63;;;9.27;;
18612;SDS011;9436;52.152;21.032;2023-01-04T03:00:58;13.47;;;9.63;;
18612;SDS011;9436;52.152;21.032;2023-01-04T03:03:39;14.80;;;9.90;;
18612;SDS011;9436;52.152;21.032;2023-01-04T03:06:22;12.50;;;9.47;;
18612;SDS011;9436;52.152;21.032;2023-01-04T03:08:55;13.30;;;9.13;;
18612;SDS011;9436;52.152;21.032;2023-01-04T03:11:30;15.57;;;9.53;;
18612;SDS011;9436;52.152;21.032;2023-01-04T03:14:04;12.33;;;9.70;;
18612;SDS011;9436;52.152;21.032;2023-01-04T03:16:34;12.43;;;9.20;;
18612;SDS011;9436;52.152;21.032;2023-01-04T03:19:05;13.20;;;9.23;;
18612;SDS011;9436;52.152;21.032;2023-01-04T03:21:35;12.97;;;9.37;;
18612;SDS011;9436;52.152;21.032;2023-01-04T03:24:05;15.37;;;10.37;;
18612;SDS011;9436;52.152;21.032;2023-01-04T03:26:36;13.73;;;9.50;;
18612;SDS011;9436;52.152;21.032;2023-01-04T03:29:09;16.80;;;10.23;;
18612;SDS011;9436;52.152;21.032;2023-01-04T03:31:57;14.50;;;9.80;;
18612;SDS011;9436;52.152;21.032;2023-01-04T03:34:31;12.87;;;9.27;;
18612;SDS011;9436;52.152;21.032;2023-01-04T03:37:03;13.83;;;9.63;;
18612;SDS011;9436;52.152;21.032;2023-01-04T03:39:40;13.03;;;9.87;;
18612;SDS011;9436;52.152;21.032;2023-01-04T03:42:21;12.47;;;9.40;;
18612;SDS011;9436;52.152;21.032;2023-01-04T03:44:58;14.47;;;10.13;;
18612;SDS011;9436;52.152;21.032;2023-01-04T03:47:34;13.13;;;10.17;;
18612;SDS011;9436;52.152;21.032;2023-01-04T03:50:11;16.37;;;10.80;;
18612;SDS011;9436;52.152;21.032;2023-01-04T03:52:45;13.73;;;10.07;;
18612;SDS011;9436;52.152;21.032;2023-01-04T03:55:13;14.40;;;9.80;;
18612;SDS011;9436;52.152;21.032;2023-01-04T03:57:43;13.67;;;10.23;;
18612;SDS011;9436;52.152;21.032;2023-01-04T04:00:11;16.07;;;10.07;;
18612;SDS011;9436;52.152;21.032;2023-01-04T04:02:40;13.77;;;10.27;;
18612;SDS011;9436;52.152;21.032;2023-01-04T04:05:10;16.20;;;10.70;;
18612;SDS011;9436;52.152;21.032;2023-01-04T04:07:44;17.33;;;10.43;;
18612;SDS011;9436;52.152;21.032;2023-01-04T04:10:12;13.93;;;10.20;;
18612;SDS011;9436;52.152;21.032;2023-01-04T04:12:39;13.97;;;10.37;;
18612;SDS011;9436;52.152;21.032;2023-01-04T04:15:06;13.87;;;10.33;;
18612;SDS011;9436;52.152;21.032;2023-01-04T04:17:34;15.30;;;10.00;;
18612;SDS011;9436;52.152;21.032;2023-01-04T04:20:02;14.93;;;11.35;;
18612;SDS011;9436;52.152;21.032;2023-01-04T04:22:31;14.53;;;9.80;;
18612;SDS011;9436;52.152;21.032;2023-01-04T04:24:58;13.73;;;9.67;;
18612;SDS011;9436;52.152;21.032;2023-01-04T04:27:24;14.13;;;10.13;;
18612;SDS011;9436;52.152;21.032;2023-01-04T04:29:52;13.77;;;9.93;;
18612;SDS011;9436;52.152;21.032;2023-01-04T04:32:19;14.57;;;10.17;;
18612;SDS011;9436;52.152;21.032;2023-01-04T04:34:46;14.97;;;9.83;;
18612;SDS011;9436;52.152;21.032;2023-01-04T04:37:13;13.97;;;9.83;;
18612;SDS011;9436;52.152;21.032;2023-01-04T04:39:41;15.63;;;10.93;;
18612;SDS011;9436;52.152;21.032;2023-01-04T04:42:08;14.80;;;10.30;;
18612;SDS011;9436;52.152;21.032;2023-01-04T04:44:34;15.07;;;10.37;;
18612;SDS011;9436;52.152;21.032;2023-01-04T04:47:01;14.20;;;10.60;;
18612;SDS011;9436;52.152;21.032;2023-01-04T04:49:28;12.70;;;10.30;;
18612;SDS011;9436;52.152;21.032;2023-01-04T04:51:55;15.20;;;10.60;;
18612;SDS011;9436;52.152;21.032;2023-01-04T04:54:24;18.83;;;11.10;;
18612;SDS011;9436;52.152;21.032;2023-01-04T04:56:52;17.17;;;11.13;;
18612;SDS011;9436;52.152;21.032;2023-01-04T04:59:19;18.63;;;11.43;;
18612;SDS011;9436;52.152;21.032;2023-01-04T05:01:46;16.53;;;11.47;;
18612;SDS011;9436;52.152;21.032;2023-01-04T05:04:13;14.57;;;11.23;;
18612;SDS011;9436;52.152;21.032;2023-01-04T05:06:44;18.17;;;12.37;;
18612;SDS011;9436;52.152;21.032;2023-01-04T05:09:12;17.97;;;11.13;;
18612;SDS011;9436;52.152;21.032;2023-01-04T05:11:41;18.27;;;12.73;;
18612;SDS011;9436;52.152;21.032;2023-01-04T05:14:12;14.03;;;10.97;;
18612;SDS011;9436;52.152;21.032;2023-01-04T05:16:39;17.10;;;12.50;;
18612;SDS011;9436;52.152;21.032;2023-01-04T05:19:06;15.00;;;12.07;;
18612;SDS011;9436;52.152;21.032;2023-01-04T05:21:33;17.73;;;12.87;;
18612;SDS011;9436;52.152;21.032;2023-01-04T05:23:59;18.73;;;12.70;;
18612;SDS011;9436;52.152;21.032;2023-01-04T05:26:28;18.03;;;11.97;;
18612;SDS011;9436;52.152;21.032;2023-01-04T05:28:55;18.10;;;12.43;;
18612;SDS011;9436;52.152;21.032;2023-01-04T05:31:23;16.57;;;11.87;;
18612;SDS011;9436;52.152;21.032;2023-01-04T05:33:50;15.33;;;11.53;;
18612;SDS011;9436;52.152;21.032;2023-01-04T05:36:17;17.53;;;11.67;;
18612;SDS011;9436;52.152;21.032;2023-01-04T05:38:43;17.57;;;11.70;;
18612;SDS011;9436;52.152;21.032;2023-01-04T05:41:10;15.63;;;12.00;;
18612;SDS011;9436;52.152;21.032;2023-01-04T05:43:51;17.60;;;11.90;;
18612;SDS011;9436;52.152;21.032;2023-01-04T05:46:18;18.63;;;12.70;;
18612;SDS011;9436;52.152;21.032;2023-01-04T05:48:48;16.70;;;12.13;;
18612;SDS011;9436;52.152;21.032;2023-01-04T05:51:16;18.27;;;11.77;;
18612;SDS011;9436;52.152;21.032;2023-01-04T05:53:42;19.23;;;13.27;;
18612;SDS011;9436;52.152;21.032;2023-01-04T05:56:09;17.83;;;13.20;;
18612;SDS011;9436;52.152;21.032;2023-01-04T05:58:36;19.77;;;13.10;;
18612;SDS011;9436;52.152;21.032;2023-01-04T06:01:03;21.83;;;13.80;;
18612;SDS011;9436;52.152;21.032;2023-01-04T06:03:31;18.10;;;13.23;;
18612;SDS011;9436;52.152;21.032;2023-01-04T06:05:59;21.63;;;13.53;;
18612;SDS011;9436;52.152;21.032;2023-01-04T06:08:26;21.87;;;13.60;;
18612;SDS011;9436;52.152;21.032;2023-01-04T06:10:53;21.30;;;14.00;;
18612;SDS011;9436;52.152;21.032;2023-01-04T06:13:20;20.80;;;13.70;;
18612;SDS011;9436;52.152;21.032;2023-01-04T06:15:48;19.93;;;13.23;;
18612;SDS011;9436;52.152;21.032;2023-01-04T06:18:15;18.67;;;13.83;;
18612;SDS011;9436;52.152;21.032;2023-01-04T06:20:42;19.20;;;14.60;;
18612;SDS011;9436;52.152;21.032;2023-01-04T06:23:10;19.77;;;13.77;;
18612;SDS011;9436;52.152;21.032;2023-01-04T06:25:38;20.60;;;14.23;;
18612;SDS011;9436;52.152;21.032;2023-01-04T06:28:04;20.67;;;14.20;;
18612;SDS011;9436;52.152;21.032;2023-01-04T06:30:31;19.80;;;14.33;;
18612;SDS011;9436;52.152;21.032;2023-01-04T06:32:59;20.73;;;14.60;;
18612;SDS011;9436;52.152;21.032;2023-01-04T06:35:26;22.67;;;15.57;;
18612;SDS011;9436;52.152;21.032;2023-01-04T06:37:52;23.20;;;15.67;;
18612;SDS011;9436;52.152;21.032;2023-01-04T06:40:20;21.23;;;14.73;;
18612;SDS011;9436;52.152;21.032;2023-01-04T06:42:47;23.90;;;16.87;;
18612;SDS011;9436;52.152;21.032;2023-01-04T06:45:14;21.73;;;15.40;;
18612;SDS011;9436;52.152;21.032;2023-01-04T06:47:41;22.10;;;16.00;;
18612;SDS011;9436;52.152;21.032;2023-01-04T06:50:09;26.33;;;14.50;;
18612;SDS011;9436;52.152;21.032;2023-01-04T06:52:36;25.87;;;16.53;;
18612;SDS011;9436;52.152;21.032;2023-01-04T06:55:03;20.87;;;15.87;;
18612;SDS011;9436;52.152;21.032;2023-01-04T06:57:31;23.00;;;15.33;;
18612;SDS011;9436;52.152;21.032;2023-01-04T06:59:58;21.70;;;15.43;;
18612;SDS011;9436;52.152;21.032;2023-01-04T07:02:25;20.17;;;14.50;;
18612;SDS011;9436;52.152;21.032;2023-01-04T07:04:52;22.53;;;16.00;;
18612;SDS011;9436;52.152;21.032;2023-01-04T07:07:19;20.63;;;14.90;;
18612;SDS011;9436;52.152;21.032;2023-01-04T07:09:45;21.80;;;16.67;;
18612;SDS011;9436;52.152;21.032;2023-01-04T07:12:12;25.15;;;18.73;;
18612;SDS011;9436;52.152;21.032;2023-01-04T07:14:40;23.43;;;16.13;;
18612;SDS011;9436;52.152;21.032;2023-01-04T07:17:08;24.17;;;17.20;;
18612;SDS011;9436;52.152;21.032;2023-01-04T07:19:36;24.43;;;17.43;;
18612;SDS011;9436;52.152;21.032;2023-01-04T07:22:02;25.50;;;18.33;;
18612;SDS011;9436;52.152;21.032;2023-01-04T07:24:29;29.37;;;17.23;;
18612;SDS011;9436;52.152;21.032;2023-01-04T07:26:57;28.23;;;18.03;;
18612;SDS011;9436;52.152;21.032;2023-01-04T07:29:24;25.37;;;17.47;;
18612;SDS011;9436;52.152;21.032;2023-01-04T07:31:54;22.43;;;16.37;;
18612;SDS011;9436;52.152;21.032;2023-01-04T07:34:22;27.23;;;18.17;;
18612;SDS011;9436;52.152;21.032;2023-01-04T07:36:50;27.30;;;19.30;;
18612;SDS011;9436;52.152;21.032;2023-01-04T07:39:17;29.17;;;18.67;;
18612;SDS011;9436;52.152;21.032;2023-01-04T07:41:45;25.33;;;18.20;;
18612;SDS011;9436;52.152;21.032;2023-01-04T07:44:13;28.17;;;17.90;;
18612;SDS011;9436;52.152;21.032;2023-01-04T07:46:42;32.27;;;18.97;;
18612;SDS011;9436;52.152;21.032;2023-01-04T07:49:12;27.33;;;19.63;;
18612;SDS011;9436;52.152;21.032;2023-01-04T07:51:40;34.13;;;20.43;;
18612;SDS011;9436;52.152;21.032;2023-01-04T07:54:08;35.10;;;19.67;;
18612;SDS011;9436;52.152;21.032;2023-01-04T07:56:35;29.90;;;19.57;;
18612;SDS011;9436;52.152;21.032;2023-01-04T07:59:03;28.27;;;19.43;;
18612;SDS011;9436;52.152;21.032;2023-01-04T08:01:32;27.97;;;19.87;;
18612;SDS011;9436;52.152;21.032;2023-01-04T08:04:02;25.80;;;19.00;;
18612;SDS011;9436;52.152;21.032;2023-01-04T08:06:31;30.20;;;20.63;;
18612;SDS011;9436;52.152;21.032;2023-01-04T08:08:59;27.33;;;19.90;;
18612;SDS011;9436;52.152;21.032;2023-01-04T08:11:26;29.67;;;20.30;;
18612;SDS011;9436;52.152;21.032;2023-01-04T08:13:53;28.50;;;20.17;;
18612;SDS011;9436;52.152;21.032;2023-01-04T08:16:21;32.70;;;21.73;;
18612;SDS011;9436;52.152;21.032;2023-01-04T08:18:52;29.10;;;20.67;;
18612;SDS011;9436;52.152;21.032;2023-01-04T08:21:19;28.33;;;20.73;;
18612;SDS011;9436;52.152;21.032;2023-01-04T08:23:48;31.97;;;21.53;;
18612;SDS011;9436;52.152;21.032;2023-01-04T08:26:15;27.60;;;21.63;;
18612;SDS011;9436;52.152;21.032;2023-01-04T08:28:42;29.50;;;21.07;;
18612;SDS011;9436;52.152;21.032;2023-01-04T08:31:10;29.57;;;20.97;;
18612;SDS011;9436;52.152;21.032;2023-01-04T08:33:38;32.63;;;22.27;;
18612;SDS011;9436;52.152;21.032;2023-01-04T08:36:06;31.83;;;22.30;;
18612;SDS011;9436;52.152;21.032;2023-01-04T08:38:35;41.53;;;20.60;;
18612;SDS011;9436;52.152;21.032;2023-01-04T08:41:04;29.93;;;22.43;;
18612;SDS011;9436;52.152;21.032;2023-01-04T08:43:31;28.93;;;22.47;;
18612;SDS011;9436;52.152;21.032;2023-01-04T08:46:02;32.77;;;22.03;;
18612;SDS011;9436;52.152;21.032;2023-01-04T08:48:30;31.67;;;22.60;;
18612;SDS011;9436;52.152;21.032;2023-01-04T08:51:01;30.90;;;22.03;;
18612;SDS011;9436;52.152;21.032;2023-01-04T08:53:30;32.20;;;22.33;;
18612;SDS011;9436;52.152;21.032;2023-01-04T08:55:58;31.33;;;22.47;;
18612;SDS011;9436;52.152;21.032;2023-01-04T08:58:28;33.63;;;23.00;;
18612;SDS011;9436;52.152;21.032;2023-01-04T09:00:58;31.80;;;22.20;;
18612;SDS011;9436;52.152;21.032;2023-01-04T09:03:26;32.90;;;22.43;;
18612;SDS011;9436;52.152;21.032;2023-01-04T09:06:00;31.43;;;21.83;;
18612;SDS011;9436;52.152;21.032;2023-01-04T09:08:29;30.30;;;21.63;;
18612;SDS011;9436;52.152;21.032;2023-01-04T09:10:57;32.00;;;22.00;;
18612;SDS011;9436;52.152;21.032;2023-01-04T09:13:32;29.33;;;21.50;;
18612;SDS011;9436;52.152;21.032;2023-01-04T09:16:00;27.93;;;20.60;;
18612;SDS011;9436;52.152;21.032;2023-01-04T09:18:28;25.13;;;18.63;;
18612;SDS011;9436;52.152;21.032;2023-01-04T09:20:56;26.37;;;20.67;;
18612;SDS011;9436;52.152;21.032;2023-01-04T09:23:25;27.30;;;20.90;;
18612;SDS011;9436;52.152;21.032;2023-01-04T09:25:54;25.57;;;20.00;;
18612;SDS011;9436;52.152;21.032;2023-01-04T09:28:22;27.20;;;19.40;;
18612;SDS011;9436;52.152;21.032;2023-01-04T09:30:52;26.70;;;20.40;;
18612;SDS011;9436;52.152;21.032;2023-01-04T09:33:20;27.00;;;20.70;;
18612;SDS011;9436;52.152;21.032;2023-01-04T09:35:48;25.20;;;18.73;;
18612;SDS011;9436;52.152;21.032;2023-01-04T09:38:14;25.13;;;18.97;;
18612;SDS011;9436;52.152;21.032;2023-01-04T09:40:46;27.23;;;18.33;;
18612;SDS011;9436;52.152;21.032;2023-01-04T09:43:20;29.50;;;21.37;;
18612;SDS011;9436;52.152;21.032;2023-01-04T09:45:51;28.67;;;19.50;;
18612;SDS011;9436;52.152;21.032;2023-01-04T09:48:23;26.03;;;19.87;;
18612;SDS011;9436;52.152;21.032;2023-01-04T09:50:55;26.70;;;18.63;;
18612;SDS011;9436;52.152;21.032;2023-01-04T09:53:26;24.17;;;18.80;;
18612;SDS011;9436;52.152;21.032;2023-01-04T09:55:57;25.50;;;18.67;;
18612;SDS011;9436;52.152;21.032;2023-01-04T09:58:35;25.40;;;18.20;;
18612;SDS011;9436;52.152;21.032;2023-01-04T10:01:09;25.37;;;18.83;;
18612;SDS011;9436;52.152;21.032;2023-01-04T10:03:41;25.10;;;18.03;;
18612;SDS011;9436;52.152;21.032;2023-01-04T10:06:13;26.43;;;18.93;;
18612;SDS011;9436;52.152;21.032;2023-01-04T10:08:41;24.67;;;18.70;;
18612;SDS011;9436;52.152;21.032;2023-01-04T10:11:14;24.20;;;18.03;;
18612;SDS011;9436;52.152;21.032;2023-01-04T10:13:58;25.40;;;18.43;;
18612;SDS011;9436;52.152;21.032;2023-01-04T10:16:42;25.80;;;18.60;;
18612;SDS011;9436;52.152;21.032;2023-01-04T10:19:21;24.10;;;18.30;;
18612;SDS011;9436;52.152;21.032;2023-01-04T10:21:58;25.03;;;18.07;;
18612;SDS011;9436;52.152;21.032;2023-01-04T10:24:34;25.73;;;18.07;;
18612;SDS011;9436;52.152;21.032;2023-01-04T10:27:13;25.50;;;18.47;;
18612;SDS011;9436;52.152;21.032;2023-01-04T10:29:53;25.47;;;18.93;;
18612;SDS011;9436;52.152;21.032;2023-01-04T10:32:38;23.57;;;16.43;;
18612;SDS011;9436;52.152;21.032;2023-01-04T10:37:43;26.53;;;18.27;;
18612;SDS011;9436;52.152;21.032;2023-01-04T10:40:12;26.43;;;18.13;;
18612;SDS011;9436;52.152;21.032;2023-01-04T10:42:42;26.53;;;17.10;;
18612;SDS011;9436;52.152;21.032;2023-01-04T10:45:19;27.40;;;18.53;;
18612;SDS011;9436;52.152;21.032;2023-01-04T10:47:55;23.43;;;17.77;;
18612;SDS011;9436;52.152;21.032;2023-01-04T10:50:32;22.93;;;17.20;;
18612;SDS011;9436;52.152;21.032;2023-01-04T10:53:05;21.33;;;16.80;;
18612;SDS011;9436;52.152;21.032;2023-01-04T10:55:40;22.77;;;17.57;;
18612;SDS011;9436;52.152;21.032;2023-01-04T10:58:11;23.53;;;17.10;;
18612;SDS011;9436;52.152;21.032;2023-01-04T11:00:46;21.10;;;16.97;;
18612;SDS011;9436;52.152;21.032;2023-01-04T11:03:18;21.53;;;16.80;;
18612;SDS011;9436;52.152;21.032;2023-01-04T11:05:52;24.87;;;17.73;;
18612;SDS011;9436;52.152;21.032;2023-01-04T11:08:25;22.70;;;16.23;;
18612;SDS011;9436;52.152;21.032;2023-01-04T11:10:58;23.37;;;17.73;;
18612;SDS011;9436;52.152;21.032;2023-01-04T11:13:30;23.90;;;16.10;;
18612;SDS011;9436;52.152;21.032;2023-01-04T11:16:01;22.93;;;16.17;;
18612;SDS011;9436;52.152;21.032;2023-01-04T11:18:35;21.27;;;16.63;;
18612;SDS011;9436;52.152;21.032;2023-01-04T11:21:05;20.67;;;16.07;;
18612;SDS011;9436;52.152;21.032;2023-01-04T11:23:37;20.27;;;15.10;;
18612;SDS011;9436;52.152;21.032;2023-01-04T11:26:05;21.17;;;15.57;;
18612;SDS011;9436;52.152;21.032;2023-01-04T11:28:38;20.97;;;15.43;;
18612;SDS011;9436;52.152;21.032;2023-01-04T11:31:14;22.07;;;15.73;;
18612;SDS011;9436;52.152;21.032;2023-01-04T11:33:52;26.17;;;16.03;;
18612;SDS011;9436;52.152;21.032;2023-01-04T11:38:54;20.73;;;15.33;;
18612;SDS011;9436;52.152;21.032;2023-01-04T11:41:22;22.47;;;16.07;;
18612;SDS011;9436;52.152;21.032;2023-01-04T11:43:55;22.33;;;15.67;;
18612;SDS011;9436;52.152;21.032;2023-01-04T11:46:24;25.90;;;17.47;;
18612;SDS011;9436;52.152;21.032;2023-01-04T11:48:55;27.67;;;16.83;;
18612;SDS011;9436;52.152;21.032;2023-01-04T11:53:57;24.73;;;17.87;;
18612;SDS011;9436;52.152;21.032;2023-01-04T11:56:25;27.87;;;18.13;;
18612;SDS011;9436;52.152;21.032;2023-01-04T12:01:29;32.07;;;19.60;;
18612;SDS011;9436;52.152;21.032;2023-01-04T12:04:02;25.60;;;18.77;;
18612;SDS011;9436;52.152;21.032;2023-01-04T12:06:37;24.27;;;17.87;;
18612;SDS011;9436;52.152;21.032;2023-01-04T12:09:08;26.37;;;19.03;;
18612;SDS011;9436;52.152;21.032;2023-01-04T12:11:42;25.77;;;19.53;;
18612;SDS011;9436;52.152;21.032;2023-01-04T12:14:17;25.10;;;19.17;;
18612;SDS011;9436;52.152;21.032;2023-01-04T12:16:51;24.90;;;18.80;;
18612;SDS011;9436;52.152;21.032;2023-01-04T12:19:25;28.53;;;19.47;;
18612;SDS011;9436;52.152;21.032;2023-01-04T12:21:53;28.47;;;19.77;;
18612;SDS011;9436;52.152;21.032;2023-01-04T12:24:22;24.47;;;18.17;;
18612;SDS011;9436;52.152;21.032;2023-01-04T12:26:53;26.13;;;18.63;;
18612;SDS011;9436;52.152;21.032;2023-01-04T12:34:47;22.67;;;16.87;;
18612;SDS011;9436;52.152;21.032;2023-01-04T12:39:58;22.33;;;16.57;;
18612;SDS011;9436;52.152;21.032;2023-01-04T12:42:25;21.70;;;16.60;;
18612;SDS011;9436;52.152;21.032;2023-01-04T12:44:56;22.13;;;16.43;;
18612;SDS011;9436;52.152;21.032;2023-01-04T12:50:08;22.93;;;17.20;;
18612;SDS011;9436;52.152;21.032;2023-01-04T12:52:40;24.67;;;17.03;;
18612;SDS011;9436;52.152;21.032;2023-01-04T13:03:33;20.47;;;15.80;;
18612;SDS011;9436;52.152;21.032;2023-01-04T13:06:04;21.23;;;15.63;;
18612;SDS011;9436;52.152;21.032;2023-01-04T13:08:37;21.17;;;15.10;;
18612;SDS011;9436;52.152;21.032;2023-01-04T13:11:05;18.70;;;15.30;;
18612;SDS011;9436;52.152;21.032;2023-01-04T13:13:45;18.93;;;14.90;;
18612;SDS011;9436;52.152;21.032;2023-01-04T13:16:22;20.20;;;14.53;;
18612;SDS011;9436;52.152;21.032;2023-01-04T13:18:57;20.30;;;14.30;;
18612;SDS011;9436;52.152;21.032;2023-01-04T13:21:30;20.73;;;14.43;;
18612;SDS011;9436;52.152;21.032;2023-01-04T13:24:00;19.83;;;14.57;;
18612;SDS011;9436;52.152;21.032;2023-01-04T13:26:33;18.20;;;14.07;;
18612;SDS011;9436;52.152;21.032;2023-01-04T13:29:13;18.10;;;13.93;;
18612;SDS011;9436;52.152;21.032;2023-01-04T13:31:45;16.37;;;13.73;;
18612;SDS011;9436;52.152;21.032;2023-01-04T13:34:18;18.37;;;14.53;;
18612;SDS011;9436;52.152;21.032;2023-01-04T13:39:23;18.00;;;14.43;;
18612;SDS011;9436;52.152;21.032;2023-01-04T13:41:51;17.57;;;13.63;;
18612;SDS011;9436;52.152;21.032;2023-01-04T13:44:20;18.03;;;14.50;;
18612;SDS011;9436;52.152;21.032;2023-01-04T13:46:56;17.17;;;13.20;;
18612;SDS011;9436;52.152;21.032;2023-01-04T13:49:25;17.58;;;14.98;;
18612;SDS011;9436;52.152;21.032;2023-01-04T13:51:54;17.93;;;13.83;;
18612;SDS011;9436;52.152;21.032;2023-01-04T13:54:21;16.43;;;13.77;;
18612;SDS011;9436;52.152;21.032;2023-01-04T13:56:49;19.63;;;14.30;;
18612;SDS011;9436;52.152;21.032;2023-01-04T13:59:18;16.57;;;13.47;;
18612;SDS011;9436;52.152;21.032;2023-01-04T14:01:46;16.53;;;12.93;;
18612;SDS011;9436;52.152;21.032;2023-01-04T14:04:14;16.40;;;12.70;;
18612;SDS011;9436;52.152;21.032;2023-01-04T14:06:47;16.90;;;13.00;;
18612;SDS011;9436;52.152;21.032;2023-01-04T14:09:20;17.63;;;12.63;;
18612;SDS011;9436;52.152;21.032;2023-01-04T14:11:50;16.27;;;12.73;;
18612;SDS011;9436;52.152;21.032;2023-01-04T14:14:25;17.77;;;12.57;;
18612;SDS011;9436;52.152;21.032;2023-01-04T14:19:38;12.27;;;9.70;;
18612;SDS011;9436;52.152;21.032;2023-01-04T14:24:41;16.67;;;11.90;;
18612;SDS011;9436;52.152;21.032;2023-01-04T14:29:53;16.60;;;12.43;;
18612;SDS011;9436;52.152;21.032;2023-01-04T14:32:21;16.67;;;11.40;;
18612;SDS011;9436;52.152;21.032;2023-01-04T14:34:49;14.43;;;11.73;;
18612;SDS011;9436;52.152;21.032;2023-01-04T14:37:17;17.63;;;12.57;;
18612;SDS011;9436;52.152;21.032;2023-01-04T14:39:45;15.80;;;11.63;;
18612;SDS011;9436;52.152;21.032;2023-01-04T14:44:46;18.17;;;12.10;;
18612;SDS011;9436;52.152;21.032;2023-01-04T14:47:13;14.63;;;11.93;;
18612;SDS011;9436;52.152;21.032;2023-01-04T14:49:40;16.83;;;12.70;;
18612;SDS011;9436;52.152;21.032;2023-01-04T14:52:08;16.17;;;12.07;;
18612;SDS011;9436;52.152;21.032;2023-01-04T14:54:36;16.07;;;12.20;;
18612;SDS011;9436;52.152;21.032;2023-01-04T14:57:05;18.20;;;13.07;;
18612;SDS011;9436;52.152;21.032;2023-01-04T14:59:32;16.33;;;12.53;;
18612;SDS011;9436;52.152;21.032;2023-01-04T15:01:59;14.13;;;11.97;;
18612;SDS011;9436;52.152;21.032;2023-01-04T15:04:26;16.30;;;12.37;;
18612;SDS011;9436;52.152;21.032;2023-01-04T15:06:54;16.97;;;13.13;;
18612;SDS011;9436;52.152;21.032;2023-01-04T15:09:24;16.77;;;12.83;;
18612;SDS011;9436;52.152;21.032;2023-01-04T15:11:51;19.23;;;13.17;;
18612;SDS011;9436;52.152;21.032;2023-01-04T15:14:21;18.00;;;13.33;;
18612;SDS011;9436;52.152;21.032;2023-01-04T15:16:48;17.20;;;12.73;;
18612;SDS011;9436;52.152;21.032;2023-01-04T15:19:15;17.20;;;13.10;;
18612;SDS011;9436;52.152;21.032;2023-01-04T15:21:42;17.57;;;13.63;;
18612;SDS011;9436;52.152;21.032;2023-01-04T15:24:09;19.47;;;14.00;;
18612;SDS011;9436;52.152;21.032;2023-01-04T15:26:36;17.67;;;14.57;;
18612;SDS011;9436;52.152;21.032;2023-01-04T15:29:04;17.63;;;13.07;;